Time;durP1;ratioP1;P1;durP2;ratioP2;P2;SDS_P1;SDS_P2;PMS_P1;PMS_P2;Temp;Humidity;BMP_temperature;BMP_pressure;BME280_temperature;BME280_humidity;BME280_pressure;Samples;Min_cycle;Max_cycle;Signal;HPM_P1;HPM_P2
2023/10/26 00:02:13;;;;;;;8.10;7.30;;;12.30;99.90;;;;;;4827911;29;20026;-93
2023/10/26 00:04:42;;;;;;;9.25;7.85;;;12.20;99.90;;;;;;4838293;29;20034;-93
2023/10/26 00:07:10;;;;;;;7.88;7.07;;;12.20;99.90;;;;;;4840714;29;20490;-95
2023/10/26 00:09:36;;;;;;;7.82;6.97;;;12.20;99.90;;;;;;4829553;29;20493;-93
2023/10/26 00:12:02;;;;;;;8.63;7.22;;;12.20;99.90;;;;;;4815135;29;20101;-92
2023/10/26 00:14:33;;;;;;;7.30;6.60;;;12.20;99.90;;;;;;4814190;29;20120;-94
2023/10/26 00:17:04;;;;;;;8.05;6.85;;;12.20;99.90;;;;;;4844668;29;20045;-93
2023/10/26 00:19:30;;;;;;;8.10;7.10;;;12.20;99.90;;;;;;4844466;29;20098;-94
2023/10/26 00:21:56;;;;;;;8.52;6.90;;;12.20;99.90;;;;;;4845040;29;20066;-93
2023/10/26 00:24:25;;;;;;;7.53;6.82;;;12.20;99.90;;;;;;4813602;29;20046;-94
2023/10/26 00:26:51;;;;;;;8.27;7.22;;;12.10;99.90;;;;;;4824900;29;20026;-95
2023/10/26 00:29:19;;;;;;;7.57;6.78;;;12.10;99.90;;;;;;4828696;29;20045;-92
2023/10/26 00:31:45;;;;;;;10.38;7.00;;;12.10;99.90;;;;;;4840315;29;20050;-92
2023/10/26 00:34:15;;;;;;;8.15;6.80;;;12.10;99.90;;;;;;4829416;29;20044;-92
2023/10/26 00:36:40;;;;;;;7.50;6.80;;;12.10;99.90;;;;;;4814528;29;20034;-94
2023/10/26 00:39:09;;;;;;;7.65;6.85;;;12.10;99.90;;;;;;4830522;29;20026;-94
2023/10/26 00:41:38;;;;;;;8.68;7.18;;;12.10;99.90;;;;;;4836722;29;20034;-95
2023/10/26 00:44:07;;;;;;;7.82;7.03;;;12.00;99.90;;;;;;4842502;29;20050;-95
2023/10/26 00:46:35;;;;;;;8.02;7.22;;;12.00;99.90;;;;;;4835584;29;20081;-90
2023/10/26 00:49:01;;;;;;;8.52;7.22;;;12.00;99.90;;;;;;4845497;29;20538;-93
2023/10/26 00:51:28;;;;;;;8.50;7.03;;;11.90;99.90;;;;;;4834018;29;20053;-92
2023/10/26 00:53:54;;;;;;;9.15;7.35;;;11.90;99.90;;;;;;4835032;29;20034;-94
2023/10/26 00:56:22;;;;;;;8.30;7.35;;;11.90;99.90;;;;;;4829846;29;20034;-93
2023/10/26 00:58:51;;;;;;;8.55;7.70;;;11.90;99.90;;;;;;4828498;29;20045;-93
2023/10/26 01:01:17;;;;;;;7.70;6.80;;;11.80;99.90;;;;;;4826363;29;20114;-93
2023/10/26 01:03:52;;;;;;;8.13;7.20;;;11.80;99.90;;;;;;4829024;29;20041;-92
2023/10/26 01:06:17;;;;;;;8.45;7.47;;;11.80;99.90;;;;;;4813560;29;20071;-94
2023/10/26 01:08:46;;;;;;;8.85;7.95;;;11.80;99.90;;;;;;4828533;29;20194;-96
2023/10/26 01:11:12;;;;;;;9.88;8.35;;;11.80;99.90;;;;;;4828484;29;20041;-92
2023/10/26 01:13:45;;;;;;;9.20;8.15;;;11.80;99.90;;;;;;4828153;29;20033;-94
2023/10/26 01:16:11;;;;;;;13.65;9.18;;;11.80;99.90;;;;;;4828968;29;20030;-94
2023/10/26 01:18:38;;;;;;;12.73;9.70;;;11.80;99.90;;;;;;4844819;29;20026;-92
2023/10/26 01:21:08;;;;;;;10.52;9.48;;;11.80;99.90;;;;;;4820436;29;20079;-91
2023/10/26 01:23:34;;;;;;;10.60;8.50;;;11.70;99.90;;;;;;4828848;29;20094;-94
2023/10/26 01:26:03;;;;;;;9.52;8.30;;;11.80;99.90;;;;;;4820144;29;20440;-93
2023/10/26 01:28:28;;;;;;;9.68;8.77;;;11.80;99.90;;;;;;4820689;29;20471;-94
2023/10/26 01:30:54;;;;;;;8.82;7.93;;;11.80;99.90;;;;;;4831934;29;20030;-94
2023/10/26 01:33:20;;;;;;;9.60;8.60;;;11.80;99.90;;;;;;4801200;29;20153;-91
2023/10/26 01:35:46;;;;;;;10.35;8.77;;;11.80;99.90;;;;;;4813218;29;20037;-93
2023/10/26 01:38:13;;;;;;;10.57;9.13;;;11.80;99.90;;;;;;4805865;29;20184;-93
2023/10/26 01:40:51;;;;;;;10.52;9.45;;;11.80;99.90;;;;;;4827696;29;20030;-94
2023/10/26 01:43:17;;;;;;;10.20;9.18;;;11.80;99.90;;;;;;4827924;29;20034;-94
2023/10/26 01:45:49;;;;;;;12.10;10.80;;;11.80;99.90;;;;;;4828075;29;20034;-94
2023/10/26 01:48:15;;;;;;;11.90;10.68;;;11.80;99.90;;;;;;4813654;29;20042;-94
2023/10/26 01:50:43;;;;;;;12.63;10.65;;;11.80;99.90;;;;;;4827951;29;20037;-93
2023/10/26 01:53:09;;;;;;;12.35;11.05;;;11.80;99.90;;;;;;4828117;29;20094;-95
2023/10/26 01:55:35;;;;;;;15.68;12.15;;;11.80;99.90;;;;;;4825771;29;20038;-93
2023/10/26 01:58:01;;;;;;;13.82;12.10;;;11.70;99.90;;;;;;4825837;29;20037;-92
2023/10/26 02:00:30;;;;;;;15.50;12.57;;;11.70;99.90;;;;;;4828186;29;20037;-94
2023/10/26 02:02:55;;;;;;;13.55;11.93;;;11.70;99.90;;;;;;4843952;29;20042;-93
2023/10/26 02:05:21;;;;;;;14.20;12.32;;;11.70;99.90;;;;;;4828812;29;20030;-93
2023/10/26 02:07:47;;;;;;;14.30;12.55;;;11.70;99.90;;;;;;4834754;29;20027;-94
2023/10/26 02:10:23;;;;;;;13.43;11.98;;;11.70;99.90;;;;;;4811846;29;20037;-94
2023/10/26 02:12:55;;;;;;;13.68;12.27;;;11.70;99.90;;;;;;4843741;29;20022;-93
2023/10/26 02:15:23;;;;;;;14.13;12.63;;;11.70;99.90;;;;;;4829035;29;20037;-93
2023/10/26 02:17:49;;;;;;;15.15;12.43;;;11.70;99.90;;;;;;4817724;29;20121;-93
2023/10/26 02:20:15;;;;;;;14.68;12.38;;;11.70;99.90;;;;;;4839006;29;20006;-92
2023/10/26 02:22:43;;;;;;;13.02;11.63;;;11.70;99.90;;;;;;4832646;29;20040;-93
2023/10/26 02:25:12;;;;;;;13.13;11.65;;;11.80;99.90;;;;;;4855706;29;20098;-93
2023/10/26 02:27:40;;;;;;;13.18;11.80;;;11.70;99.90;;;;;;4833159;29;20053;-94
2023/10/26 02:30:07;;;;;;;13.93;12.15;;;11.70;99.90;;;;;;4829921;29;20030;-94
2023/10/26 02:32:35;;;;;;;13.18;11.77;;;11.80;99.90;;;;;;4838104;29;20058;-93
2023/10/26 02:35:03;;;;;;;14.45;11.45;;;11.70;99.90;;;;;;4820950;29;20033;-92
2023/10/26 02:37:29;;;;;;;14.05;12.18;;;11.80;99.90;;;;;;4827220;29;20485;-94
2023/10/26 02:39:55;;;;;;;13.85;11.98;;;11.80;99.90;;;;;;4827436;29;20063;-94
2023/10/26 02:42:23;;;;;;;13.93;11.95;;;11.80;99.90;;;;;;4826538;29;20030;-93
2023/10/26 02:44:49;;;;;;;12.95;11.63;;;11.80;99.90;;;;;;4822117;29;20045;-92
2023/10/26 02:47:15;;;;;;;13.40;11.60;;;11.80;99.90;;;;;;4826905;29;20494;-93
2023/10/26 02:49:41;;;;;;;12.75;11.45;;;11.70;99.90;;;;;;4826537;29;20466;-94
2023/10/26 02:52:07;;;;;;;13.10;11.63;;;11.80;99.90;;;;;;4828581;29;20034;-94
2023/10/26 02:54:32;;;;;;;12.30;11.00;;;11.70;99.90;;;;;;4844223;29;20029;-94
2023/10/26 02:57:05;;;;;;;12.10;10.90;;;11.70;99.90;;;;;;4846853;29;20033;-92
2023/10/26 02:59:31;;;;;;;12.70;11.40;;;11.70;99.90;;;;;;4845981;29;20037;-93
2023/10/26 03:02:00;;;;;;;13.02;11.40;;;11.70;99.90;;;;;;4846724;29;20066;-92
2023/10/26 03:04:26;;;;;;;11.80;10.60;;;11.70;99.90;;;;;;4830158;29;20065;-93
2023/10/26 03:06:51;;;;;;;12.43;11.18;;;11.70;99.90;;;;;;4845685;29;20490;-92
2023/10/26 03:09:17;;;;;;;12.18;10.98;;;11.70;99.90;;;;;;4831641;29;20022;-93
2023/10/26 03:11:46;;;;;;;11.85;10.02;;;11.70;99.90;;;;;;4847869;29;20867;-93
2023/10/26 03:14:12;;;;;;;11.90;10.70;;;11.70;99.90;;;;;;4846817;29;20034;-93
2023/10/26 03:16:38;;;;;;;14.45;11.20;;;11.60;99.90;;;;;;4846181;29;20122;-93
2023/10/26 03:19:04;;;;;;;12.45;11.18;;;11.60;99.90;;;;;;4845307;29;20030;-95
2023/10/26 03:21:30;;;;;;;13.23;11.82;;;11.70;99.90;;;;;;4845482;29;20045;-94
2023/10/26 03:24:02;;;;;;;15.05;11.02;;;11.60;99.90;;;;;;4829935;29;20390;-94
2023/10/26 03:26:33;;;;;;;12.88;11.45;;;11.60;99.90;;;;;;4845217;29;20038;-93
2023/10/26 03:28:59;;;;;;;12.48;11.15;;;11.60;99.90;;;;;;4845663;29;20033;-93
2023/10/26 03:31:25;;;;;;;12.52;11.23;;;11.60;99.90;;;;;;4829511;29;20054;-94
2023/10/26 03:33:51;;;;;;;12.10;10.90;;;11.60;99.90;;;;;;4845564;29;20066;-93
2023/10/26 03:36:19;;;;;;;12.73;11.43;;;11.60;99.90;;;;;;4845361;29;20026;-94
2023/10/26 03:38:46;;;;;;;12.60;10.75;;;11.60;99.90;;;;;;4829895;29;20140;-95
2023/10/26 03:41:12;;;;;;;12.30;11.02;;;11.50;99.90;;;;;;4830901;29;20034;-93
2023/10/26 03:43:38;;;;;;;11.82;10.57;;;11.50;99.90;;;;;;4845285;29;20133;-93
2023/10/26 03:46:14;;;;;;;11.73;10.23;;;11.50;99.90;;;;;;4830863;29;20130;-94
2023/10/26 03:48:40;;;;;;;11.73;10.30;;;11.50;99.90;;;;;;4830168;29;20086;-91
2023/10/26 03:51:06;;;;;;;11.15;10.02;;;11.50;99.90;;;;;;4830297;29;20100;-91
2023/10/26 03:53:32;;;;;;;11.45;10.27;;;11.40;99.90;;;;;;4830529;29;20534;-92
2023/10/26 03:55:58;;;;;;;10.75;9.65;;;11.40;99.90;;;;;;4839547;29;20037;-93
2023/10/26 03:58:27;;;;;;;10.98;9.43;;;11.40;99.90;;;;;;4835352;29;20026;-93
2023/10/26 04:00:57;;;;;;;10.93;9.82;;;11.40;99.90;;;;;;4831812;29;20026;-93
2023/10/26 04:03:23;;;;;;;12.77;11.48;;;11.30;99.90;;;;;;4838570;29;20475;-93
2023/10/26 04:05:49;;;;;;;11.07;9.57;;;11.30;99.90;;;;;;4835065;29;20037;-91
2023/10/26 04:08:15;;;;;;;13.15;10.10;;;11.30;99.90;;;;;;4814916;29;20036;-94
2023/10/26 04:11:37;;;;;;;;;;;;;;;;;;;;;
2023/10/26 04:14:19;;;;;;;10.70;9.57;;;11.30;99.90;;;;;;4838259;29;20046;-93
2023/10/26 04:16:57;;;;;;;;;;;;;;;;;;;;;
2023/10/26 04:22:46;;;;;;;11.35;10.15;;;11.30;99.90;;;;;;4845043;29;20319;-93
2023/10/26 04:25:45;;;;;;;12.52;10.57;;;11.30;99.90;;;;;;4798473;29;20038;-92
2023/10/26 04:34:44;;;;;;;;;;;;;;;;;;;;;
2023/10/26 04:37:51;;;;;;;;;;;;;;;;;;;;;
2023/10/26 04:40:58;;;;;;;13.15;10.20;;;11.30;99.90;;;;;;4838701;29;20038;-92
2023/10/26 04:44:01;;;;;;;;;;;;;;;;;;;;;
2023/10/26 04:46:44;;;;;;;;;;;;;;;;;;;;;
2023/10/26 04:49:25;;;;;;;;;;;;;;;;;;;;;
2023/10/26 04:52:03;;;;;;;12.40;10.68;;;11.40;99.90;;;;;;4824140;29;20090;-95
2023/10/26 04:54:37;;;;;;;14.05;11.93;;;11.30;99.90;;;;;;4851344;29;20100;-93
2023/10/26 04:57:24;;;;;;;13.30;10.88;;;11.30;99.90;;;;;;4803032;29;20042;-94
2023/10/26 04:59:57;;;;;;;18.08;12.77;;;11.40;99.90;;;;;;4802038;29;20039;-94
2023/10/26 05:02:45;;;;;;;14.82;12.55;;;11.30;99.90;;;;;;4831974;29;20033;-94
2023/10/26 05:05:25;;;;;;;;;;;;;;;;;;;;;
2023/10/26 05:07:54;;;;;;;14.30;11.82;;;11.30;99.90;;;;;;4851487;29;20099;-92
2023/10/26 05:10:32;;;;;;;13.40;12.00;;;11.30;99.90;;;;;;4818556;29;20034;-92
2023/10/26 05:13:03;;;;;;;13.73;11.15;;;11.30;99.90;;;;;;4832729;29;20389;-94
2023/10/26 05:16:01;;;;;;;13.85;11.90;;;11.20;99.90;;;;;;4859068;29;20038;-95
2023/10/26 05:18:30;;;;;;;14.73;11.98;;;11.20;99.90;;;;;;4825592;29;20037;-92
2023/10/26 05:21:07;;;;;;;13.57;12.10;;;11.20;99.90;;;;;;4836953;29;20105;-94
2023/10/26 05:23:32;;;;;;;17.25;11.63;;;11.10;99.90;;;;;;4826480;29;20034;-89
2023/10/26 05:26:32;;;;;;;12.73;11.25;;;11.10;99.90;;;;;;4848443;29;20044;-92
2023/10/26 05:29:35;;;;;;;12.73;11.45;;;11.10;99.90;;;;;;4865657;29;20110;-92
2023/10/26 05:34:30;;;;;;;11.40;9.70;;;11.10;99.90;;;;;;4830795;24;20047;-94
2023/10/26 05:37:02;;;;;;;10.15;9.15;;;11.10;99.90;;;;;;4829281;29;20059;-91
2023/10/26 05:39:38;;;;;;;12.38;8.25;;;11.10;99.90;;;;;;4816620;29;20031;-93
2023/10/26 05:45:39;;;;;;;;;;;;;;;;;;;;;
2023/10/26 05:48:10;;;;;;;;;;;;;;;;;;;;;
2023/10/26 05:51:10;;;;;;;10.15;9.05;;;11.10;99.90;;;;;;4848432;29;20017;-94
2023/10/26 05:53:47;;;;;;;15.35;9.38;;;11.10;99.90;;;;;;4847942;29;20019;-95
2023/10/26 05:56:26;;;;;;;12.27;8.20;;;11.10;99.90;;;;;;4848250;29;20026;-95
2023/10/26 05:59:14;;;;;;;;;;;;;;;;;;;;;
2023/10/26 06:01:57;;;;;;;9.93;8.93;;;11.10;99.90;;;;;;4852040;29;20041;-94
2023/10/26 06:04:30;;;;;;;10.65;9.25;;;11.10;99.90;;;;;;4835866;29;20030;-94
2023/10/26 06:07:00;;;;;;;12.10;9.80;;;11.00;99.90;;;;;;4850150;29;20071;-90
2023/10/26 06:09:35;;;;;;;13.18;9.57;;;11.00;99.90;;;;;;4865213;29;20034;-93
2023/10/26 06:12:03;;;;;;;10.45;9.40;;;11.00;99.90;;;;;;4865344;29;20489;-92
2023/10/26 06:14:38;;;;;;;13.30;9.75;;;11.00;99.90;;;;;;4861318;29;20049;-95
2023/10/26 06:17:16;;;;;;;14.35;9.60;;;11.00;99.90;;;;;;4843676;29;20034;-95
2023/10/26 06:19:42;;;;;;;12.00;8.48;;;11.00;99.90;;;;;;4859923;29;20117;-95
2023/10/26 06:22:11;;;;;;;12.90;8.93;;;11.00;99.90;;;;;;4856536;29;20022;-95
2023/10/26 06:24:37;;;;;;;15.48;9.10;;;11.00;99.90;;;;;;4854850;29;20093;-94
2023/10/26 06:27:07;;;;;;;10.40;9.40;;;11.00;99.90;;;;;;4860637;29;20545;-95
2023/10/26 06:29:33;;;;;;;10.85;9.75;;;11.00;99.90;;;;;;4841961;29;20034;-95
2023/10/26 06:32:01;;;;;;;9.52;8.15;;;11.00;99.90;;;;;;4839635;29;20041;-95
2023/10/26 06:34:30;;;;;;;9.75;8.85;;;11.10;99.90;;;;;;4854015;29;20030;-95
2023/10/26 06:37:06;;;;;;;9.50;8.50;;;11.10;99.90;;;;;;4856777;29;20113;-90
2023/10/26 06:39:34;;;;;;;11.00;8.27;;;11.00;99.90;;;;;;4835483;29;20029;-93
2023/10/26 06:42:08;;;;;;;15.80;8.90;;;11.10;99.90;;;;;;4839944;29;20026;-95
2023/10/26 06:44:39;;;;;;;9.77;7.80;;;11.10;99.90;;;;;;4836921;29;20485;-93
2023/10/26 06:47:04;;;;;;;;;;;11.10;99.90;;;;;;4854847;29;20045;-93
2023/10/26 06:49:59;;;;;;;22.23;8.10;;;11.10;99.90;;;;;;4861700;29;19917;-94
2023/10/26 06:52:35;;;;;;;11.85;7.90;;;11.00;99.90;;;;;;4842966;29;20101;-94
2023/10/26 06:55:01;;;;;;;19.23;8.60;;;11.00;99.90;;;;;;4840096;29;20125;-92
2023/10/26 06:57:35;;;;;;;8.98;7.75;;;11.00;99.90;;;;;;4838535;29;20025;-92
2023/10/26 07:00:01;;;;;;;26.45;8.20;;;11.00;99.90;;;;;;4838072;29;20046;-92
2023/10/26 07:02:30;;;;;;;16.17;7.18;;;11.00;99.90;;;;;;4838198;29;20094;-92
2023/10/26 07:04:56;;;;;;;9.82;7.25;;;10.90;99.90;;;;;;4837784;29;20411;-91
2023/10/26 07:07:31;;;;;;;10.20;7.40;;;10.90;99.90;;;;;;4818740;29;20034;-92
2023/10/26 07:10:02;;;;;;;14.73;7.03;;;10.90;99.90;;;;;;4835684;29;20474;-91
2023/10/26 07:12:28;;;;;;;8.30;6.78;;;10.90;99.90;;;;;;4819427;29;20045;-94
2023/10/26 07:14:54;;;;;;;8.95;6.78;;;10.90;99.90;;;;;;4851188;29;20026;-91
2023/10/26 07:17:21;;;;;;;9.13;7.07;;;10.90;99.90;;;;;;4837490;29;20444;-92
2023/10/26 07:19:49;;;;;;;11.20;7.00;;;10.90;99.90;;;;;;4846987;29;20030;-92
2023/10/26 07:22:15;;;;;;;8.68;7.00;;;10.90;99.90;;;;;;4846473;29;20037;-92
2023/10/26 07:24:41;;;;;;;8.73;7.22;;;10.90;99.90;;;;;;4830802;29;20038;-91
2023/10/26 07:27:06;;;;;;;17.77;7.25;;;10.90;99.90;;;;;;4815499;29;20155;-92
2023/10/26 07:29:36;;;;;;;10.70;7.18;;;10.90;99.90;;;;;;4830130;29;20029;-91
2023/10/26 07:32:02;;;;;;;15.88;7.13;;;11.00;99.90;;;;;;4846623;29;20067;-90
2023/10/26 07:34:49;;;;;;;7.55;6.80;;;11.00;99.90;;;;;;4831623;29;20518;-91
2023/10/26 07:37:52;;;;;;;10.27;7.00;;;11.00;99.90;;;;;;4820146;29;20041;-93
2023/10/26 07:41:02;;;;;;;9.63;7.70;;;11.00;99.90;;;;;;4835252;29;20040;-92
2023/10/26 07:43:31;;;;;;;13.02;8.68;;;11.10;99.90;;;;;;4824193;29;20034;-93
2023/10/26 07:49:14;;;;;;;12.10;8.60;;;11.10;99.90;;;;;;4821404;29;20045;-91
2023/10/26 07:52:06;;;;;;;12.38;9.05;;;11.10;99.90;;;;;;4831574;29;20132;-95
2023/10/26 07:54:37;;;;;;;18.85;9.50;;;11.10;99.90;;;;;;4827639;29;20141;-87
2023/10/26 07:57:10;;;;;;;9.63;8.38;;;11.00;99.90;;;;;;4860843;29;20029;-89
2023/10/26 07:59:36;;;;;;;24.30;8.95;;;11.00;99.90;;;;;;4846975;29;20042;-94
2023/10/26 08:02:12;;;;;;;18.88;9.05;;;11.00;99.90;;;;;;4859812;29;20041;-94
2023/10/26 08:04:38;;;;;;;15.75;7.78;;;11.00;99.90;;;;;;4849325;29;20038;-93
2023/10/26 08:07:04;;;;;;;10.50;8.25;;;11.00;99.90;;;;;;4852053;29;20123;-92
2023/10/26 08:09:33;;;;;;;12.88;7.75;;;11.00;99.90;;;;;;4822269;29;20026;-93
2023/10/26 08:12:20;;;;;;;8.55;7.70;;;11.00;99.90;;;;;;4833587;29;20052;-92
2023/10/26 08:14:46;;;;;;;11.55;7.68;;;11.10;99.90;;;;;;4838342;29;20038;-95
2023/10/26 08:17:49;;;;;;;;;;;;;;;;;;;;;
2023/10/26 08:20:39;;;;;;;;;;;;;;;;;;;;;
2023/10/26 08:23:32;;;;;;;15.55;8.75;;;11.20;99.90;;;;;;4857864;29;20061;-94
2023/10/26 08:26:54;;;;;;;;;;;;;;;;;;;;;
2023/10/26 08:29:57;;;;;;;10.88;8.65;;;11.30;99.90;;;;;;4863581;29;20052;-94
2023/10/26 08:32:39;;;;;;;;;;;;;;;;;;;;;
2023/10/26 08:35:46;;;;;;;;;;;;;;;;;;;;;
2023/10/26 08:41:13;;;;;;;10.25;9.13;;;11.40;99.90;;;;;;4841721;29;20034;-89
2023/10/26 08:43:55;;;;;;;14.52;9.07;;;11.40;99.90;;;;;;4847775;29;20045;-93
2023/10/26 08:46:31;;;;;;;;;;;;;;;;;;;;;
2023/10/26 08:49:15;;;;;;;9.63;8.73;;;11.30;99.90;;;;;;4856908;29;20062;-94
2023/10/26 08:52:18;;;;;;;10.23;8.20;;;11.40;99.90;;;;;;4859358;29;20029;-95
2023/10/26 08:54:56;;;;;;;;;;;;;;;;;;;;;
2023/10/26 08:58:03;;;;;;;10.63;9.35;;;11.50;99.90;;;;;;4832739;29;20050;-96
2023/10/26 09:00:46;;;;;;;;;;;;;;;;;;;;;
2023/10/26 09:03:30;;;;;;;11.75;10.55;;;11.50;99.90;;;;;;4847906;29;20057;-92
2023/10/26 09:09:29;;;;;;;11.48;10.25;;;11.60;99.90;;;;;;4919360;24;20054;-93
2023/10/26 09:12:19;;;;;;;12.27;11.07;;;11.70;99.90;;;;;;4989374;24;20050;-92
2023/10/26 09:15:08;;;;;;;12.13;10.83;;;11.70;99.90;;;;;;4867320;29;20058;-93
2023/10/26 09:17:55;;;;;;;;;;;;;;;;;;;;;
2023/10/26 09:20:30;;;;;;;15.52;13.07;;;11.80;99.90;;;;;;4869795;29;20057;-92
2023/10/26 09:23:29;;;;;;;;;;;;;;;;;;;;;
2023/10/26 09:37:16;;;;;;;16.35;13.13;;;12.00;99.90;;;;;;5576190;24;20042;-90
2023/10/26 09:40:15;;;;;;;16.17;13.90;;;12.10;99.90;;;;;;5309293;24;20029;-89
2023/10/26 09:43:06;;;;;;;15.75;13.95;;;12.10;99.90;;;;;;4857675;29;20062;-93
2023/10/26 09:46:20;;;;;;;15.48;13.68;;;12.20;99.90;;;;;;4880185;29;20033;-94
2023/10/26 09:51:51;;;;;;;17.33;13.90;;;12.30;99.90;;;;;;5241936;24;20273;-92
2023/10/26 09:57:47;;;;;;;16.90;13.63;;;12.30;99.90;;;;;;4808400;29;20035;-94
2023/10/26 10:01:08;;;;;;;16.83;14.32;;;12.40;99.90;;;;;;4829925;29;20011;-95
2023/10/26 10:04:05;;;;;;;;;;;;;;;;;;;;;
2023/10/26 10:06:58;;;;;;;;;;;12.40;99.90;;;;;;4851641;29;20034;-90
2023/10/26 10:10:04;;;;;;;17.50;14.32;;;12.40;99.90;;;;;;5275463;24;19927;-90
2023/10/26 10:15:54;;;;;;;16.17;13.85;;;12.40;99.90;;;;;;5088630;24;20048;-94
2023/10/26 10:22:02;;;;;;;15.32;13.30;;;12.40;99.90;;;;;;4784968;30;20089;-95
2023/10/26 10:25:37;;;;;;;15.05;13.27;;;12.50;99.90;;;;;;4742115;30;20048;-94
2023/10/26 10:28:06;;;;;;;15.38;13.05;;;12.60;99.90;;;;;;4764949;29;20027;-90
2023/10/26 10:31:00;;;;;;;;;;;;;;;;;;;;;
2023/10/26 10:33:44;;;;;;;15.38;13.77;;;12.70;99.90;;;;;;4810882;30;20058;-91
2023/10/26 10:36:19;;;;;;;16.42;13.80;;;12.70;99.90;;;;;;4821308;29;20019;-94
2023/10/26 10:39:43;;;;;;;15.60;13.68;;;12.70;99.90;;;;;;4784608;30;20119;-95
2023/10/26 10:42:17;;;;;;;18.35;14.55;;;12.80;99.90;;;;;;4766099;30;20060;-92
2023/10/26 10:44:54;;;;;;;15.95;13.57;;;12.90;99.90;;;;;;4798099;30;20043;-94
2023/10/26 10:47:29;;;;;;;15.68;13.52;;;12.90;99.90;;;;;;4801977;29;20030;-94
2023/10/26 10:50:44;;;;;;;16.77;14.77;;;13.00;99.90;;;;;;4795511;29;20016;-94
2023/10/26 10:56:47;;;;;;;16.85;14.98;;;13.00;99.90;;;;;;4783539;30;20042;-94
2023/10/26 11:00:04;;;;;;;;;;;;;;;;;;;;;
2023/10/26 11:02:37;;;;;;;14.73;12.80;;;13.10;99.90;;;;;;4797266;29;20077;-91
2023/10/26 11:05:09;;;;;;;14.10;11.80;;;13.10;99.90;;;;;;4794845;29;20066;-93
2023/10/26 11:07:48;;;;;;;13.43;12.02;;;13.10;99.90;;;;;;4772589;30;20051;-94
2023/10/26 11:10:17;;;;;;;15.25;13.27;;;13.20;99.90;;;;;;4813179;29;20039;-93
2023/10/26 11:12:52;;;;;;;14.10;12.60;;;13.20;99.90;;;;;;4811422;29;20042;-91
2023/10/26 11:15:37;;;;;;;15.07;13.48;;;13.20;99.90;;;;;;4816969;29;20051;-93
2023/10/26 11:18:07;;;;;;;17.73;14.15;;;13.20;99.90;;;;;;4839052;29;20015;-93
2023/10/26 11:20:50;;;;;;;14.10;12.38;;;13.10;99.90;;;;;;4809052;29;20031;-93
2023/10/26 11:23:45;;;;;;;13.90;12.18;;;13.10;99.90;;;;;;4826458;29;20022;-94
2023/10/26 11:26:37;;;;;;;14.80;12.85;;;13.10;99.90;;;;;;4827785;29;20080;-94
2023/10/26 11:29:32;;;;;;;;;;;;;;;;;;;;;
2023/10/26 11:32:34;;;;;;;13.52;12.05;;;13.20;99.90;;;;;;4828908;29;19956;-93
2023/10/26 11:35:25;;;;;;;16.48;12.73;;;13.20;99.90;;;;;;4822709;29;20054;-94
2023/10/26 11:38:12;;;;;;;15.15;12.85;;;13.20;99.90;;;;;;4842006;29;20068;-94
2023/10/26 11:41:01;;;;;;;13.07;11.40;;;13.30;99.90;;;;;;4829038;29;20033;-94
2023/10/26 11:43:48;;;;;;;12.40;11.10;;;13.30;99.90;;;;;;4824972;29;20085;-95
2023/10/26 11:50:05;;;;;;;13.60;11.35;;;13.30;99.90;;;;;;4829466;29;20035;-94
2023/10/26 11:52:59;;;;;;;12.32;11.07;;;13.30;99.90;;;;;;4846872;29;20101;-95
2023/10/26 11:55:38;;;;;;;;;;;;;;;;;;;;;
2023/10/26 11:58:10;;;;;;;11.80;10.60;;;13.20;99.90;;;;;;4829778;29;20058;-94
2023/10/26 12:04:45;;;;;;;11.50;10.00;;;13.30;99.90;;;;;;4838197;29;20049;-94
2023/10/26 12:07:17;;;;;;;12.30;10.73;;;13.30;99.90;;;;;;4824163;29;20084;-95
2023/10/26 12:15:58;;;;;;;11.98;10.70;;;13.30;99.90;;;;;;4846752;29;20078;-93
2023/10/26 12:18:29;;;;;;;11.20;10.05;;;13.30;99.90;;;;;;4864853;29;20022;-94
2023/10/26 12:21:13;;;;;;;12.88;10.63;;;13.30;99.90;;;;;;4866621;29;20030;-93
2023/10/26 12:23:48;;;;;;;12.05;10.82;;;13.30;99.90;;;;;;4869383;29;20042;-92
2023/10/26 12:26:45;;;;;;;12.20;10.77;;;13.30;99.90;;;;;;4884926;29;20042;-94
2023/10/26 12:29:22;;;;;;;13.52;11.05;;;13.30;99.90;;;;;;4867939;29;20059;-93
2023/10/26 12:32:08;;;;;;;13.85;12.35;;;13.30;99.90;;;;;;4860721;29;20029;-93
2023/10/26 12:34:46;;;;;;;14.90;12.75;;;13.30;99.90;;;;;;4850182;29;20054;-93
2023/10/26 12:37:15;;;;;;;15.57;12.85;;;13.30;99.90;;;;;;4862978;29;20022;-93
2023/10/26 12:40:04;;;;;;;14.15;12.65;;;13.20;99.90;;;;;;4861614;29;20028;-92
2023/10/26 12:42:43;;;;;;;15.65;13.73;;;13.20;99.90;;;;;;4876071;29;20026;-92
2023/10/26 12:45:23;;;;;;;15.90;14.07;;;13.20;99.90;;;;;;4858770;29;20040;-94
2023/10/26 12:47:57;;;;;;;14.13;12.55;;;13.20;99.90;;;;;;4848959;29;20033;-89
2023/10/26 12:50:34;;;;;;;16.75;14.98;;;13.10;99.90;;;;;;4873330;29;20025;-92
2023/10/26 12:53:08;;;;;;;13.88;12.48;;;13.10;99.90;;;;;;4870838;29;20035;-93
2023/10/26 12:55:57;;;;;;;14.55;13.15;;;13.10;99.90;;;;;;4868638;29;20101;-94
2023/10/26 12:58:41;;;;;;;13.48;12.07;;;13.10;99.90;;;;;;4869260;29;20038;-94
2023/10/26 13:04:33;;;;;;;;;;;;;;;;;;;;;
2023/10/26 13:07:28;;;;;;;12.82;11.43;;;13.20;99.90;;;;;;4873616;29;20061;-94
2023/10/26 13:10:33;;;;;;;12.77;11.48;;;13.20;99.90;;;;;;4888708;29;20085;-95
2023/10/26 13:13:02;;;;;;;12.57;11.27;;;13.20;99.90;;;;;;4876483;29;20033;-94
2023/10/26 13:15:59;;;;;;;12.02;10.82;;;13.20;99.90;;;;;;4846427;29;20086;-94
2023/10/26 13:18:32;;;;;;;12.02;10.82;;;13.20;99.90;;;;;;4840308;29;20030;-94
2023/10/26 13:21:15;;;;;;;11.68;9.95;;;13.20;99.90;;;;;;4841868;29;20026;-93
2023/10/26 13:23:41;;;;;;;11.52;10.32;;;13.30;99.90;;;;;;4829015;29;20058;-95
2023/10/26 13:26:45;;;;;;;10.80;9.70;;;13.30;99.90;;;;;;4858391;29;20041;-94
2023/10/26 13:29:14;;;;;;;11.63;10.13;;;13.30;99.90;;;;;;4834378;29;20045;-93
2023/10/26 13:31:43;;;;;;;11.55;10.25;;;13.40;99.90;;;;;;4845936;29;20038;-94
2023/10/26 13:34:14;;;;;;;11.65;10.45;;;13.30;99.90;;;;;;4844363;29;20502;-94
2023/10/26 13:37:01;;;;;;;;;;;;;;;;;;;;;
2023/10/26 13:40:06;;;;;;;12.55;10.15;;;13.30;99.90;;;;;;4878833;29;19951;-93
2023/10/26 13:49:20;;;;;;;13.13;10.80;;;13.30;99.90;;;;;;4973148;24;20116;-95
2023/10/26 13:52:15;;;;;;;;;;;;;;;;;;;;;
2023/10/26 13:55:06;;;;;;;13.82;11.10;;;13.30;99.90;;;;;;4869468;29;20036;-94
2023/10/26 13:57:56;;;;;;;13.00;10.98;;;13.20;99.90;;;;;;4870043;29;20108;-93
2023/10/26 14:01:24;;;;;;;12.18;10.73;;;13.30;99.90;;;;;;4854221;29;20093;-93
2023/10/26 14:04:15;;;;;;;13.10;10.98;;;13.20;99.90;;;;;;4858990;29;20116;-94
2023/10/26 14:06:52;;;;;;;11.85;10.32;;;13.30;99.90;;;;;;4860541;29;20021;-93
2023/10/26 14:16:00;;;;;;;11.65;9.90;;;13.30;99.90;;;;;;4975687;24;20058;-94
2023/10/26 14:33:27;;;;;;;9.70;8.63;;;13.40;99.90;;;;;;5575188;24;20047;-92
2023/10/26 14:39:24;;;;;;;;;;;;;;;;;;;;;
2023/10/26 14:54:03;;;;;;;10.52;8.57;;;13.60;99.90;;;;;;4850208;29;20032;-95
2023/10/26 14:59:20;;;;;;;;;;;;;;;;;;;;;
2023/10/26 15:02:51;;;;;;;;;;;;;;;;;;;;;
2023/10/26 15:05:42;;;;;;;11.45;9.40;;;13.50;99.90;;;;;;5386610;24;20128;-89
2023/10/26 15:08:19;;;;;;;11.73;9.63;;;13.50;99.90;;;;;;5260276;24;20040;-94
2023/10/26 15:10:50;;;;;;;10.45;8.52;;;13.50;99.90;;;;;;5080932;24;20057;-92
2023/10/26 15:14:08;;;;;;;10.65;8.40;;;13.40;99.90;;;;;;5717508;24;21165;31
2023/10/26 15:16:46;;;;;;;9.60;8.60;;;13.50;99.90;;;;;;4804456;29;20062;-93
2023/10/26 15:21:44;;;;;;;11.15;9.05;;;13.30;99.90;;;;;;4845438;29;20515;-93
2023/10/26 15:24:24;;;;;;;11.00;9.48;;;13.30;99.90;;;;;;4861341;29;20022;-88
2023/10/26 15:26:59;;;;;;;11.05;8.60;;;13.30;99.90;;;;;;4914378;24;20072;-95
2023/10/26 15:29:34;;;;;;;10.57;8.88;;;13.30;99.90;;;;;;4852686;29;20026;-94
2023/10/26 15:39:02;;;;;;;10.02;8.57;;;13.20;99.90;;;;;;4861239;29;20026;-95
2023/10/26 16:01:10;;;;;;;;;;;;;;;;;;;;;
2023/10/26 16:11:38;;;;;;;9.43;8.20;;;13.10;99.90;;;;;;5103991;24;20100;-92
2023/10/26 16:14:17;;;;;;;9.63;7.95;;;13.10;99.90;;;;;;4821592;29;20043;-94
2023/10/26 16:17:13;;;;;;;10.05;8.35;;;13.00;99.90;;;;;;4792314;30;20035;-95
2023/10/26 16:19:39;;;;;;;10.65;8.57;;;13.10;99.90;;;;;;4774999;30;20087;-93
2023/10/26 16:22:13;;;;;;;9.70;8.00;;;13.00;99.90;;;;;;4811452;29;20016;-94
2023/10/26 16:24:44;;;;;;;9.38;8.07;;;13.00;99.90;;;;;;4797538;29;20066;-95
2023/10/26 16:27:11;;;;;;;9.73;7.85;;;13.00;99.90;;;;;;4818586;29;20035;-94
2023/10/26 16:29:39;;;;;;;8.85;7.30;;;12.90;99.90;;;;;;4802259;29;20038;-93
2023/10/26 16:32:05;;;;;;;8.45;7.15;;;12.90;99.90;;;;;;4820214;29;20080;-92
2023/10/26 16:34:33;;;;;;;9.30;7.72;;;12.90;99.90;;;;;;4801417;29;20035;-94
2023/10/26 16:36:59;;;;;;;9.30;8.38;;;12.90;99.90;;;;;;4785299;30;20024;-93
2023/10/26 16:39:31;;;;;;;9.45;7.15;;;12.90;99.90;;;;;;4768798;30;20058;-94